Tucson Intl Information

FAA: TUS - ICAO: KTUS

Tucson Intl (Airport) Location

State Arizona
County Pima
City Tucson
Tucson Intl (Airport) is 6 miles south of Tucson, AZ.
Latitude 32-06-57.8490N
Longitude 110-56-27.6500W
Elevation 2,643ft

Tucson Intl METARs

METAR KTUS 301853Z 00000KT 10SM CLR 23/01 A3010 RMK AO2 SLP161 T02330006
Altimeter 30.10"
Temperature 23.3°C (73.9°F)
Wind 0° at 0KT
Clouds Skies are clear.
Visibility 10.0mi
Time observed: 2021-11-30T18:53:00Z

Tucson Intl (Airport) Details

Status Operational
Activation November 1941
Ownership Public
Usage Public
Chart PHOENIX
ATC on-site Yes
Beacon schedule sunset-sunrise
Beacon color clear green

Tucson Intl (Airport) Contacts

Owner TUCSON AIRPORT AUTHORITY
Owner address 7250 SOUTH TUCSON BLVD, SUITE 300, TUCSON, AZ 85756
Owner phone 520-573-8100
Manager JOHN TAYLOR
Manager address 1601 W ST MARYS RD, TUCSON, AZ 85703
Manager phone 602-622-5833

Tucson Intl Radio Frequencies

Tucson Intl (Airport) Radio Frequencies

UNICOM 122.95
Common traffic advisory frequency (CTAF) N/A